createdAt,value
2018-04-01T00:00:49.975Z,98966.38
2018-04-01T00:01:54.371Z,98965.89
2018-04-01T00:02:59.598Z,98960.77
2018-04-01T00:04:05.236Z,98968.81
2018-04-01T00:05:09.684Z,98963.81
2018-04-01T00:06:19.346Z,98963.50
2018-04-01T00:07:23.830Z,98960.89
2018-04-01T00:08:28.292Z,98962.23
2018-04-01T00:09:32.749Z,98961.03
2018-04-01T00:10:37.224Z,98960.39
2018-04-01T00:11:41.613Z,98948.16
2018-04-01T00:12:46.102Z,98961.62
2018-04-01T00:13:50.517Z,98956.52
2018-04-01T00:14:54.940Z,98962.27
2018-04-01T00:15:59.440Z,98962.92
2018-04-01T00:17:03.913Z,98967.95
2018-04-01T00:18:08.499Z,98969.29
2018-04-01T00:19:18.188Z,98962.63
2018-04-01T00:20:22.630Z,98963.67
2018-04-01T00:21:27.056Z,98962.98
2018-04-01T00:22:31.545Z,98960.44
2018-04-01T00:23:35.970Z,98962.16
2018-04-01T00:24:40.442Z,98967.48
2018-04-01T00:25:45.025Z,98967.89
2018-04-01T00:26:58.444Z,98964.77
2018-04-01T00:28:07.233Z,98965.27
2018-04-01T00:29:11.746Z,98961.09
2018-04-01T00:30:16.288Z,98964.86
2018-04-01T00:31:23.944Z,98971.84
2018-04-01T00:32:28.393Z,98965.28
2018-04-01T00:33:32.996Z,98974.22
2018-04-01T00:34:37.427Z,98972.70
2018-04-01T00:35:41.886Z,98978.10
2018-04-01T00:36:46.345Z,98978.74
2018-04-01T00:37:50.822Z,98977.30
2018-04-01T00:38:57.175Z,98979.33
2018-04-01T00:40:01.561Z,98979.28
2018-04-01T00:41:06.101Z,98978.59
2018-04-01T00:42:10.495Z,98980.42
2018-04-01T00:43:15.059Z,98982.69
2018-04-01T00:44:24.827Z,98987.59
2018-04-01T00:45:29.226Z,98990.81
2018-04-01T00:46:33.683Z,98990.21
2018-04-01T00:47:41.229Z,98990.16
2018-04-01T00:48:49.371Z,98987.34
2018-04-01T00:49:53.772Z,98988.11
2018-04-01T00:51:03.337Z,98987.46
2018-04-01T00:52:07.833Z,98992.86
2018-04-01T00:53:12.273Z,98987.33
2018-04-01T00:54:16.743Z,98993.97
2018-04-01T00:55:21.541Z,98987.93
2018-04-01T00:56:26.065Z,98989.05
2018-04-01T00:57:37.026Z,98977.92
2018-04-01T00:58:41.549Z,98986.20
2018-04-01T00:59:46.134Z,98985.95
2018-04-01T01:00:51.370Z,98987.80
2018-04-01T01:01:54.811Z,98985.52
2018-04-01T01:03:04.545Z,98988.23
2018-04-01T01:04:09.037Z,98979.89
2018-04-01T01:05:19.588Z,98981.33
2018-04-01T01:06:24.034Z,98985.88
2018-04-01T01:07:28.578Z,98984.61
2018-04-01T01:08:36.955Z,98983.20
2018-04-01T01:09:43.745Z,98986.75
2018-04-01T01:10:48.167Z,98984.84
2018-04-01T01:12:03.230Z,98987.33
2018-04-01T01:13:07.829Z,98984.22
2018-04-01T01:14:12.247Z,98980.41
2018-04-01T01:15:16.662Z,98982.23
2018-04-01T01:16:21.105Z,98989.36
2018-04-01T01:17:31.638Z,98993.89
2018-04-01T01:18:36.071Z,98994.11
2018-04-01T01:19:43.439Z,98993.69
2018-04-01T01:20:51.989Z,98988.94
2018-04-01T01:21:56.629Z,98989.71
2018-04-01T01:23:01.124Z,98989.25
2018-04-01T01:24:06.434Z,98994.41
2018-04-01T01:25:16.064Z,98994.55
2018-04-01T01:26:20.480Z,98994.34
2018-04-01T01:27:25.783Z,98994.09
2018-04-01T01:28:30.216Z,98988.95
2018-04-01T01:29:36.001Z,99000.41
2018-04-01T01:30:56.204Z,98994.37
2018-04-01T01:32:00.599Z,98980.46
2018-04-01T01:33:08.993Z,98982.73
2018-04-01T01:34:13.480Z,98986.55
2018-04-01T01:35:19.069Z,98982.23
2018-04-01T01:36:23.677Z,98983.11
2018-04-01T01:37:27.879Z,98978.11
2018-04-01T01:38:37.715Z,98969.05
2018-04-01T01:39:42.233Z,98984.61
2018-04-01T01:40:46.826Z,98987.08
2018-04-01T01:41:52.167Z,98984.22
2018-04-01T01:42:56.814Z,98987.79
2018-04-01T01:44:01.287Z,98977.00
2018-04-01T01:45:05.769Z,98985.61
2018-04-01T01:46:10.234Z,98974.64
2018-04-01T01:47:15.518Z,98986.32
2018-04-01T01:48:20.025Z,98977.31
2018-04-01T01:49:24.500Z,98988.28
2018-04-01T01:50:29.098Z,98990.03
2018-04-01T01:51:33.884Z,98977.09
2018-04-01T01:52:38.359Z,98977.89
2018-04-01T01:53:42.845Z,98983.88
2018-04-01T01:54:47.278Z,98983.88
2018-04-01T01:55:51.850Z,98988.45
2018-04-01T01:56:56.112Z,98986.31
2018-04-01T01:58:00.314Z,98989.06
2018-04-01T01:59:04.499Z,98990.39
2018-04-01T02:00:08.673Z,98998.48
2018-04-01T02:01:18.135Z,98992.97
2018-04-01T02:02:22.557Z,98993.00
2018-04-01T02:03:28.837Z,98999.99
2018-04-01T02:04:33.320Z,98998.62
2018-04-01T02:05:37.536Z,98991.22
2018-04-01T02:06:41.982Z,98991.98
2018-04-01T02:07:46.227Z,98991.56
2018-04-01T02:08:50.690Z,98991.27
2018-04-01T02:09:58.293Z,98997.81
2018-04-01T02:11:02.793Z,98993.64
2018-04-01T02:12:09.242Z,98995.81
2018-04-01T02:13:13.804Z,98986.53
2018-04-01T02:14:18.087Z,98994.39
2018-04-01T02:15:22.590Z,98996.00
2018-04-01T02:16:27.020Z,98989.53
2018-04-01T02:17:33.340Z,98988.68
2018-04-01T02:18:37.936Z,98992.49
2018-04-01T02:19:42.439Z,98993.05
2018-04-01T02:20:46.870Z,98992.27
2018-04-01T02:21:51.327Z,98987.52
2018-04-01T02:22:55.778Z,98998.59
2018-04-01T02:24:00.049Z,98990.73
2018-04-01T02:25:06.266Z,98999.12
2018-04-01T02:26:11.509Z,98991.59
2018-04-01T02:27:15.954Z,98996.11
2018-04-01T02:28:20.388Z,98992.86
2018-04-01T02:29:31.469Z,98996.70
2018-04-01T02:30:35.951Z,98990.98
2018-04-01T02:31:40.391Z,98998.91
2018-04-01T02:32:46.790Z,98994.66
2018-04-01T02:33:51.222Z,99002.00
2018-04-01T02:34:55.917Z,98999.34
2018-04-01T02:36:00.379Z,99008.87
2018-04-01T02:37:04.818Z,99017.06
2018-04-01T02:38:09.276Z,99011.05
2018-04-01T02:39:13.803Z,99009.08
2018-04-01T02:40:18.262Z,99021.74
2018-04-01T02:41:22.712Z,99028.53
2018-04-01T02:42:27.109Z,99025.83
2018-04-01T02:43:31.584Z,99027.34
2018-04-01T02:44:35.865Z,99026.89
2018-04-01T02:45:43.244Z,99026.11
2018-04-01T02:46:47.669Z,99030.02
2018-04-01T02:47:52.099Z,99027.67
2018-04-01T02:48:57.092Z,99031.86
2018-04-01T02:50:02.969Z,99030.63
2018-04-01T02:51:08.764Z,99041.59
2018-04-01T02:52:13.310Z,99031.45
2018-04-01T02:53:17.925Z,99030.69
2018-04-01T02:54:22.755Z,99036.61
2018-04-01T02:55:27.288Z,99054.67
2018-04-01T02:56:31.752Z,99034.57
2018-04-01T02:57:36.209Z,99043.19
2018-04-01T02:58:40.661Z,99043.33
2018-04-01T02:59:46.103Z,99032.42
2018-04-01T03:00:55.622Z,99030.88
2018-04-01T03:02:00.144Z,99034.66
2018-04-01T03:03:04.631Z,99038.22
2018-04-01T03:04:09.495Z,99041.72
2018-04-01T03:05:14.024Z,99039.28
2018-04-01T03:06:19.325Z,99040.30
2018-04-01T03:07:23.762Z,99048.84
2018-04-01T03:08:28.195Z,99052.25
2018-04-01T03:09:32.704Z,99047.39
2018-04-01T03:10:37.219Z,99046.42
2018-04-01T03:11:41.673Z,99055.40
2018-04-01T03:12:46.198Z,99048.73
2018-04-01T03:13:50.625Z,99051.20
2018-04-01T03:15:00.808Z,99061.77
2018-04-01T03:16:05.633Z,99047.84
2018-04-01T03:17:12.453Z,99059.16
2018-04-01T03:18:16.948Z,99060.59
2018-04-01T03:19:21.457Z,99060.59
2018-04-01T03:20:25.941Z,99063.27
2018-04-01T03:21:30.438Z,99069.30
2018-04-01T03:22:34.928Z,99060.97
2018-04-01T03:23:39.445Z,99067.02
2018-04-01T03:24:43.972Z,99067.48
2018-04-01T03:25:48.470Z,99067.89
2018-04-01T03:26:53.001Z,99077.92
2018-04-01T03:27:57.500Z,99072.63
2018-04-01T03:29:02.075Z,99077.66
2018-04-01T03:30:06.576Z,99077.70
2018-04-01T03:31:11.066Z,99073.73
2018-04-01T03:32:19.461Z,99072.88
2018-04-01T03:33:23.936Z,99088.09
2018-04-01T03:34:28.524Z,99081.00
2018-04-01T03:35:32.935Z,99075.80
2018-04-01T03:36:37.435Z,99076.73
2018-04-01T03:37:41.916Z,99075.68
2018-04-01T03:38:46.123Z,99079.11
2018-04-01T03:39:50.589Z,99076.88
2018-04-01T03:40:55.007Z,99081.20
2018-04-01T03:42:05.060Z,99090.14
2018-04-01T03:43:09.505Z,99088.48
2018-04-01T03:44:14.054Z,99088.94
2018-04-01T03:45:18.570Z,99087.55
2018-04-01T03:46:24.776Z,99088.86
2018-04-01T03:47:29.327Z,99083.41
2018-04-01T03:48:33.584Z,99089.19
2018-04-01T03:49:38.008Z,99094.03
2018-04-01T03:50:42.404Z,99092.70
2018-04-01T03:51:46.881Z,99101.36
2018-04-01T03:52:51.383Z,99099.77
2018-04-01T03:53:55.819Z,99103.88
2018-04-01T03:55:00.323Z,99100.69
2018-04-01T03:56:11.482Z,99101.81
2018-04-01T03:57:15.951Z,99111.65
2018-04-01T03:58:20.541Z,99120.89
2018-04-01T03:59:25.015Z,99114.97
2018-04-01T04:00:29.512Z,99110.31
2018-04-01T04:01:34.206Z,99114.83
2018-04-01T04:02:38.479Z,99117.77
2018-04-01T04:03:42.842Z,99116.05
2018-04-01T04:04:47.957Z,99115.26
2018-04-01T04:05:52.408Z,99101.37
2018-04-01T04:06:56.763Z,99118.07
2018-04-01T04:08:01.096Z,99114.49
2018-04-01T04:09:10.407Z,99115.82
2018-04-01T04:10:14.959Z,99117.56
2018-04-01T04:11:19.191Z,99117.00
2018-04-01T04:12:23.662Z,99117.66
2018-04-01T04:13:34.180Z,99107.69
2018-04-01T04:14:38.733Z,99122.60
2018-04-01T04:15:45.258Z,99119.40
2018-04-01T04:16:50.460Z,99119.81
2018-04-01T04:18:00.609Z,99122.81
2018-04-01T04:19:05.219Z,99120.42
2018-04-01T04:20:09.662Z,99114.49
2018-04-01T04:21:14.222Z,99115.40
2018-04-01T04:22:18.628Z,99121.77
2018-04-01T04:23:23.150Z,99117.56
2018-04-01T04:24:27.716Z,99124.86
2018-04-01T04:25:32.165Z,99123.81
2018-04-01T04:26:36.628Z,99123.19
2018-04-01T04:27:40.828Z,99133.81
2018-04-01T04:28:45.268Z,99128.84
2018-04-01T04:29:49.838Z,99124.30
2018-04-01T04:30:54.371Z,99127.56
2018-04-01T04:31:58.848Z,99131.55
2018-04-01T04:33:03.352Z,99129.95
2018-04-01T04:34:07.762Z,99127.98
2018-04-01T04:35:12.215Z,99132.97
2018-04-01T04:36:16.688Z,99129.59
2018-04-01T04:37:21.166Z,99123.06
2018-04-01T04:38:25.610Z,99131.16
2018-04-01T04:39:36.046Z,99127.13
2018-04-01T04:40:40.569Z,99129.42
2018-04-01T04:41:45.121Z,99131.79
2018-04-01T04:42:49.940Z,99135.23
2018-04-01T04:43:55.277Z,99132.23
2018-04-01T04:44:59.834Z,99134.84
2018-04-01T04:46:05.415Z,99134.25
2018-04-01T04:47:09.940Z,99125.99
2018-04-01T04:48:14.448Z,99137.61
2018-04-01T04:49:19.791Z,99136.61
2018-04-01T04:50:24.272Z,99138.02
2018-04-01T04:51:28.713Z,99137.50
2018-04-01T04:52:33.650Z,99133.71
2018-04-01T04:53:39.043Z,99132.89
2018-04-01T04:54:43.521Z,99134.05
2018-04-01T04:55:48.255Z,99134.79
2018-04-01T04:56:54.411Z,99143.31
2018-04-01T04:57:59.390Z,99147.11
2018-04-01T04:59:08.062Z,99141.20
2018-04-01T05:00:13.310Z,99136.31
2018-04-01T05:01:17.768Z,99144.75
2018-04-01T05:02:22.551Z,99150.69
2018-04-01T05:03:27.061Z,99153.14
2018-04-01T05:04:31.491Z,99143.26
2018-04-01T05:05:35.968Z,99146.59
2018-04-01T05:06:46.502Z,99148.98
2018-04-01T05:07:50.934Z,99150.05
2018-04-01T05:08:55.459Z,99160.28
2018-04-01T05:10:02.047Z,99149.30
2018-04-01T05:11:06.530Z,99157.07
2018-04-01T05:12:10.969Z,99153.45
2018-04-01T05:13:15.456Z,99160.70
2018-04-01T05:14:19.910Z,99161.91
2018-04-01T05:15:24.306Z,99161.33
2018-04-01T05:16:34.538Z,99157.92
2018-04-01T05:17:39.044Z,99159.00
2018-04-01T05:18:43.580Z,99163.09
2018-04-01T05:19:53.461Z,99162.95
2018-04-01T05:20:57.885Z,99160.90
2018-04-01T05:22:07.096Z,99167.05
2018-04-01T05:23:11.311Z,99164.51
2018-04-01T05:24:15.608Z,99165.56
2018-04-01T05:25:20.108Z,99162.63
2018-04-01T05:26:24.592Z,99170.76
2018-04-01T05:27:29.017Z,99169.98
2018-04-01T05:28:33.541Z,99162.51
2018-04-01T05:29:37.990Z,99174.49
2018-04-01T05:30:42.488Z,99175.18
2018-04-01T05:31:48.455Z,99176.91
2018-04-01T05:32:52.931Z,99175.00
2018-04-01T05:33:57.402Z,99178.93
2018-04-01T05:35:01.847Z,99174.45
2018-04-01T05:36:08.296Z,99173.91
2018-04-01T05:37:12.744Z,99178.39
2018-04-01T05:38:20.007Z,99193.61
2018-04-01T05:39:24.798Z,99185.97
2018-04-01T05:40:29.329Z,99191.23
2018-04-01T05:41:33.786Z,99188.20
2018-04-01T05:42:37.989Z,99191.19
2018-04-01T05:43:42.432Z,99198.27
2018-04-01T05:44:46.966Z,99193.92
2018-04-01T05:45:51.197Z,99197.31
2018-04-01T05:47:00.532Z,99196.89
2018-04-01T05:48:04.981Z,99195.07
2018-04-01T05:49:09.480Z,99198.36
2018-04-01T05:50:13.980Z,99203.22
2018-04-01T05:51:18.390Z,99205.30
2018-04-01T05:52:24.806Z,99211.56
2018-04-01T05:53:29.319Z,99213.73
2018-04-01T05:54:33.850Z,99223.09
2018-04-01T05:55:43.425Z,99227.84
2018-04-01T05:56:48.326Z,99224.73
2018-04-01T05:57:53.806Z,99222.89
2018-04-01T05:58:59.270Z,99217.52
2018-04-01T06:00:04.797Z,99223.61
2018-04-01T06:01:10.074Z,99235.05
2018-04-01T06:02:15.551Z,99228.15
2018-04-01T06:03:21.111Z,99231.59
2018-04-01T06:04:26.149Z,99223.17
2018-04-01T06:05:31.402Z,99239.09
2018-04-01T06:06:36.743Z,99239.90
2018-04-01T06:07:41.951Z,99232.63
2018-04-01T06:08:47.333Z,99235.62
2018-04-01T06:09:52.367Z,99234.43
2018-04-01T06:10:57.405Z,99233.14
2018-04-01T06:12:02.981Z,99243.37
2018-04-01T06:13:08.370Z,99246.44
2018-04-01T06:14:13.816Z,99245.13
2018-04-01T06:15:18.821Z,99250.20
2018-04-01T06:16:45.613Z,99246.11
2018-04-01T06:17:50.742Z,99249.75
2018-04-01T06:18:56.483Z,99252.86
2018-04-01T06:20:02.015Z,99258.34
2018-04-01T06:21:08.126Z,99277.52
2018-04-01T06:22:13.431Z,99259.69
2018-04-01T06:23:21.111Z,99257.19
2018-04-01T06:24:26.907Z,99267.27
2018-04-01T06:25:32.848Z,99268.09
2018-04-01T06:26:41.161Z,99263.59
2018-04-01T06:27:46.534Z,99264.75
2018-04-01T06:28:52.178Z,99267.74
2018-04-01T06:30:05.509Z,99272.41
2018-04-01T06:31:10.863Z,99274.39
2018-04-01T06:32:17.242Z,99273.59
2018-04-01T06:33:22.692Z,99265.75
2018-04-01T06:34:28.322Z,99272.21
2018-04-01T06:35:32.135Z,99274.59
2018-04-01T06:36:36.139Z,99277.48
2018-04-01T06:37:39.866Z,99272.78
2018-04-01T06:38:43.824Z,99279.20
2018-04-01T06:39:48.222Z,99272.73
2018-04-01T06:40:52.075Z,99282.89
2018-04-01T06:41:55.923Z,99276.52
2018-04-01T06:42:59.865Z,99275.58
2018-04-01T06:44:06.923Z,99274.63
2018-04-01T06:45:11.332Z,99276.20
2018-04-01T06:46:16.258Z,99273.60
2018-04-01T06:47:20.616Z,99272.75
2018-04-01T06:48:25.051Z,99271.77
2018-04-01T06:49:29.026Z,99280.17
2018-04-01T06:50:33.947Z,99281.45
2018-04-01T06:51:38.003Z,99283.47
2018-04-01T06:52:42.320Z,99275.44
2018-04-01T06:53:46.470Z,99281.50
2018-04-01T06:54:50.813Z,99277.16
2018-04-01T06:55:55.062Z,99287.31
2018-04-01T06:56:59.188Z,99288.64
2018-04-01T06:58:03.223Z,99291.92
2018-04-01T06:59:07.142Z,99299.27
2018-04-01T07:00:11.182Z,99300.31
2018-04-01T07:01:15.890Z,99288.81
2018-04-01T07:02:20.047Z,99293.47
2018-04-01T07:03:24.280Z,99295.83
2018-04-01T07:04:28.426Z,99296.03
2018-04-01T07:05:32.321Z,99297.14
2018-04-01T07:06:36.580Z,99295.78
2018-04-01T07:07:41.174Z,99292.20
2018-04-01T07:08:45.401Z,99296.98
2018-04-01T07:09:49.492Z,99299.72
2018-04-01T07:10:53.525Z,99299.57
2018-04-01T07:11:58.959Z,99302.98
2018-04-01T07:13:05.302Z,99303.33
2018-04-01T07:14:10.609Z,99301.61
2018-04-01T07:15:16.885Z,99302.43
2018-04-01T07:16:27.251Z,99305.95
2018-04-01T07:17:32.783Z,99307.09
2018-04-01T07:18:38.374Z,99309.91
2018-04-01T07:19:43.772Z,99309.60
2018-04-01T07:20:49.111Z,99309.80
2018-04-01T07:21:54.437Z,99313.73
2018-04-01T07:23:00.067Z,99310.30
2018-04-01T07:24:05.337Z,99319.30
2018-04-01T07:25:11.390Z,99314.30
2018-04-01T07:26:17.042Z,99324.03
2018-04-01T07:27:22.363Z,99320.34
2018-04-01T07:28:27.713Z,99319.03
2018-04-01T07:29:34.243Z,99326.06
2018-04-01T07:30:39.475Z,99329.06
2018-04-01T07:31:44.632Z,99327.03
2018-04-01T07:32:54.868Z,99322.52
2018-04-01T07:34:00.983Z,99317.09
2018-04-01T07:35:06.760Z,99326.05
2018-04-01T07:36:12.355Z,99326.83
2018-04-01T07:37:18.015Z,99327.31
2018-04-01T07:38:23.258Z,99324.41
2018-04-01T07:39:28.648Z,99324.95
2018-04-01T07:40:34.218Z,99325.95
2018-04-01T07:41:40.098Z,99322.87
2018-04-01T07:42:46.553Z,99328.86
2018-04-01T07:43:52.145Z,99320.89
2018-04-01T07:44:57.808Z,99332.49
2018-04-01T07:46:02.608Z,99333.50
2018-04-01T07:47:08.542Z,99331.03
2018-04-01T07:48:14.349Z,99330.57
2018-04-01T07:49:19.886Z,99326.94
2018-04-01T07:50:26.152Z,99332.45
2018-04-01T07:51:31.485Z,99328.83
2018-04-01T07:52:37.924Z,99329.25
2018-04-01T07:53:43.202Z,99332.72
2018-04-01T07:54:48.523Z,99332.72
2018-04-01T07:55:55.005Z,99332.63
2018-04-01T07:57:00.368Z,99344.48
2018-04-01T07:58:05.929Z,99336.59
2018-04-01T07:59:11.934Z,99335.37
2018-04-01T08:00:17.528Z,99335.66
2018-04-01T08:01:24.348Z,99336.10
2018-04-01T08:02:29.958Z,99342.17
2018-04-01T08:03:35.588Z,99351.97
2018-04-01T08:04:41.438Z,99348.33
2018-04-01T08:05:47.376Z,99342.36
2018-04-01T08:06:52.752Z,99342.70
2018-04-01T08:07:59.269Z,99351.09
2018-04-01T08:09:04.591Z,99347.04
2018-04-01T08:10:10.811Z,99345.59
2018-04-01T08:11:18.404Z,99339.66
2018-04-01T08:12:23.916Z,99341.93
2018-04-01T08:13:31.192Z,99337.80
2018-04-01T08:14:36.410Z,99353.52
2018-04-01T08:15:42.686Z,99353.93
2018-04-01T08:16:47.930Z,99341.80
2018-04-01T08:17:53.060Z,99349.61
2018-04-01T08:18:58.528Z,99348.97
2018-04-01T08:20:04.317Z,99350.55
2018-04-01T08:21:09.862Z,99349.91
2018-04-01T08:22:15.987Z,99356.43
2018-04-01T08:23:21.753Z,99358.72
2018-04-01T08:24:26.809Z,99355.56
2018-04-01T08:25:32.902Z,99363.63
2018-04-01T08:26:38.414Z,99359.41
2018-04-01T08:27:46.552Z,99368.25
2018-04-01T08:28:51.822Z,99361.56
2018-04-01T08:29:59.183Z,99363.13
2018-04-01T08:31:06.855Z,99360.73
2018-04-01T08:32:15.538Z,99368.28
2018-04-01T08:33:20.968Z,99363.46
2018-04-01T08:34:27.711Z,99365.03
2018-04-01T08:35:35.193Z,99364.28
2018-04-01T08:36:42.933Z,99368.82
2018-04-01T08:37:48.494Z,99367.67
2018-04-01T08:38:54.621Z,99371.45
2018-04-01T08:40:06.088Z,99375.52
2018-04-01T08:41:11.418Z,99379.94
2018-04-01T08:42:16.340Z,99372.20
2018-04-01T08:43:21.074Z,99380.19
2018-04-01T08:44:25.534Z,99372.75
2018-04-01T08:45:30.065Z,99378.13
2018-04-01T08:46:35.006Z,99373.27
2018-04-01T08:47:39.576Z,99379.09
2018-04-01T08:48:44.228Z,99370.56
2018-04-01T08:49:48.782Z,99378.63
2018-04-01T08:50:53.362Z,99387.14
2018-04-01T08:51:58.362Z,99386.05
2018-04-01T08:53:02.998Z,99390.27
2018-04-01T08:54:07.558Z,99384.32
2018-04-01T08:55:12.081Z,99391.23
2018-04-01T08:56:16.637Z,99391.85
2018-04-01T08:57:21.138Z,99394.03
2018-04-01T08:58:25.844Z,99388.16
2018-04-01T08:59:31.717Z,99399.66
2018-04-01T09:00:36.404Z,99398.92
2018-04-01T09:01:41.914Z,99389.94
2018-04-01T09:02:46.574Z,99394.64
2018-04-01T09:03:51.144Z,99394.05
2018-04-01T09:04:55.677Z,99395.23
2018-04-01T09:06:00.211Z,99396.53
2018-04-01T09:07:04.775Z,99395.52
2018-04-01T09:08:11.149Z,99385.16
2018-04-01T09:09:15.838Z,99393.67
2018-04-01T09:10:20.478Z,99397.05
2018-04-01T09:11:26.144Z,99392.91
2018-04-01T09:12:32.921Z,99390.68
2018-04-01T09:13:37.460Z,99399.22
2018-04-01T09:14:42.495Z,99394.81
2018-04-01T09:15:48.105Z,99401.28
2018-04-01T09:16:53.554Z,99406.45
2018-04-01T09:17:59.902Z,99404.11
2018-04-01T09:19:05.440Z,99404.17
2018-04-01T09:20:11.042Z,99402.22
2018-04-01T09:21:16.734Z,99405.30
2018-04-01T09:22:23.809Z,99403.23
2018-04-01T09:23:29.180Z,99400.84
2018-04-01T09:24:34.541Z,99408.70
2018-04-01T09:25:40.370Z,99407.09
2018-04-01T09:26:45.877Z,99415.99
2018-04-01T09:27:52.136Z,99406.57
2018-04-01T09:28:57.509Z,99412.53
2018-04-01T09:30:02.687Z,99411.40
2018-04-01T09:31:08.066Z,99412.16
2018-04-01T09:32:13.458Z,99407.44
2018-04-01T09:33:18.365Z,99412.16
2018-04-01T09:34:23.606Z,99414.66
2018-04-01T09:35:28.771Z,99414.87
2018-04-01T09:36:33.821Z,99402.89
2018-04-01T09:37:39.853Z,99407.19
2018-04-01T09:38:45.024Z,99402.30
2018-04-01T09:39:50.979Z,99407.03
2018-04-01T09:40:56.237Z,99409.62
2018-04-01T09:42:01.500Z,99404.86
2018-04-01T09:43:07.593Z,99414.41
2018-04-01T09:44:13.093Z,99411.03
2018-04-01T09:45:19.372Z,99408.37
2018-04-01T09:46:25.266Z,99403.77
2018-04-01T09:47:30.936Z,99406.14
2018-04-01T09:48:36.355Z,99413.80
2018-04-01T09:49:41.613Z,99406.87
2018-04-01T09:50:46.534Z,99410.02
2018-04-01T09:51:51.641Z,99422.58
2018-04-01T09:52:57.103Z,99423.61
2018-04-01T09:55:17.873Z,99418.52
2018-04-01T09:56:22.936Z,99431.38
2018-04-01T09:57:28.205Z,99423.02
2018-04-01T09:58:34.107Z,99424.02
2018-04-01T09:59:40.149Z,99422.70
2018-04-01T10:00:57.080Z,99423.83
2018-04-01T10:02:03.507Z,99423.78
2018-04-01T10:03:09.967Z,99425.95
2018-04-01T10:04:17.144Z,99423.30
2018-04-01T10:05:23.500Z,99422.75
2018-04-01T10:06:31.494Z,99427.28
2018-04-01T10:07:38.938Z,99430.64
2018-04-01T10:08:46.126Z,99420.20
2018-04-01T10:09:53.898Z,99424.33
2018-04-01T10:11:01.181Z,99428.06
2018-04-01T10:12:08.388Z,99424.05
2018-04-01T10:13:15.296Z,99414.41
2018-04-01T10:14:23.691Z,99410.91
2018-04-01T10:15:34.018Z,99410.89
2018-04-01T10:16:46.960Z,99408.04
2018-04-01T10:17:54.004Z,99405.77
2018-04-01T10:19:00.999Z,99410.20
2018-04-01T10:20:08.177Z,99406.17
2018-04-01T10:21:15.535Z,99414.72
2018-04-01T10:22:22.960Z,99412.97
2018-04-01T10:23:31.689Z,99419.33
2018-04-01T10:24:38.608Z,99412.93
2018-04-01T10:25:45.747Z,99415.80
2018-04-01T10:26:53.605Z,99422.45
2018-04-01T10:28:00.627Z,99427.84
2018-04-01T10:29:07.199Z,99424.92
2018-04-01T10:30:13.414Z,99418.84
2018-04-01T10:31:20.081Z,99431.78
2018-04-01T10:32:26.374Z,99432.33
2018-04-01T10:33:32.675Z,99436.11
2018-04-01T10:34:38.954Z,99438.70
2018-04-01T10:35:45.320Z,99440.07
2018-04-01T10:36:51.621Z,99434.83
2018-04-01T10:37:57.955Z,99427.69
2018-04-01T10:39:03.533Z,99426.07
2018-04-01T10:40:09.129Z,99428.61
2018-04-01T10:41:15.357Z,99434.30
2018-04-01T10:42:21.652Z,99432.80
2018-04-01T10:43:27.838Z,99432.22
2018-04-01T10:44:34.342Z,99438.40
2018-04-01T10:45:40.528Z,99435.98
2018-04-01T10:46:46.760Z,99428.69
2018-04-01T10:47:52.966Z,99434.67
2018-04-01T10:48:59.232Z,99430.45
2018-04-01T10:50:05.389Z,99439.22
2018-04-01T10:51:11.629Z,99448.92
2018-04-01T10:52:17.855Z,99449.66
2018-04-01T10:53:23.558Z,99432.71
2018-04-01T10:54:28.516Z,99445.57
2018-04-01T10:55:33.559Z,99442.64
2018-04-01T10:56:37.960Z,99441.61
2018-04-01T10:57:42.665Z,99451.95
2018-04-01T10:58:46.929Z,99452.97
2018-04-01T10:59:51.353Z,99459.03
2018-04-01T11:00:55.858Z,99461.04
2018-04-01T11:02:00.360Z,99455.55
2018-04-01T11:03:04.800Z,99459.98
2018-04-01T11:04:09.291Z,99463.45
2018-04-01T11:05:13.756Z,99463.04
2018-04-01T11:06:18.447Z,99463.64
2018-04-01T11:07:22.888Z,99457.73
2018-04-01T11:08:27.313Z,99459.83
2018-04-01T11:09:31.764Z,99461.07
2018-04-01T11:10:36.251Z,99455.80
2018-04-01T11:11:40.778Z,99460.92
2018-04-01T11:12:45.272Z,99455.03
2018-04-01T11:13:49.692Z,99461.13
2018-04-01T11:14:54.144Z,99454.75
2018-04-01T11:15:58.590Z,99465.12
2018-04-01T11:17:03.049Z,99460.89
2018-04-01T11:18:07.454Z,99462.84
2018-04-01T11:19:11.932Z,99464.75
2018-04-01T11:20:16.436Z,99463.84
2018-04-01T11:21:20.879Z,99460.97
2018-04-01T11:22:25.072Z,99455.98
2018-04-01T11:23:29.554Z,99462.92
2018-04-01T11:24:34.971Z,99461.44
2018-04-01T11:25:39.390Z,99461.52
2018-04-01T11:26:43.861Z,99459.36
2018-04-01T11:27:48.379Z,99451.92
2018-04-01T11:28:52.916Z,99463.16
2018-04-01T11:29:57.421Z,99459.37
2018-04-01T11:31:01.969Z,99455.45
2018-04-01T11:32:06.476Z,99453.92
2018-04-01T11:33:10.989Z,99461.13
2018-04-01T11:34:15.472Z,99446.93
2018-04-01T11:35:19.992Z,99454.41
2018-04-01T11:36:24.533Z,99455.87
2018-04-01T11:37:29.047Z,99452.59
2018-04-01T11:38:33.569Z,99450.14
2018-04-01T11:39:38.191Z,99456.74
2018-04-01T11:40:42.708Z,99463.39
2018-04-01T11:41:47.213Z,99461.89
2018-04-01T11:42:51.733Z,99462.73
2018-04-01T11:43:56.207Z,99462.23
2018-04-01T11:45:00.692Z,99462.27
2018-04-01T11:46:05.214Z,99464.74
2018-04-01T11:47:09.722Z,99455.34
2018-04-01T11:48:15.210Z,99456.57
2018-04-01T11:49:19.671Z,99458.34
2018-04-01T11:50:24.193Z,99449.25
2018-04-01T11:51:28.681Z,99452.87
2018-04-01T11:52:33.254Z,99455.62
2018-04-01T11:53:37.693Z,99456.18
2018-04-01T11:54:42.251Z,99450.98
2018-04-01T11:55:46.788Z,99456.48
2018-04-01T11:56:51.394Z,99450.92
2018-04-01T11:57:56.106Z,99460.10
2018-04-01T11:59:00.607Z,99456.09
2018-04-01T12:00:05.117Z,99456.50
2018-04-01T12:01:09.638Z,99452.14
2018-04-01T12:02:14.166Z,99458.63
2018-04-01T12:03:18.661Z,99452.75
2018-04-01T12:04:23.137Z,99459.72
2018-04-01T12:05:27.621Z,99456.53
2018-04-01T12:06:32.085Z,99455.16
2018-04-01T12:07:36.603Z,99455.20
2018-04-01T12:08:41.164Z,99460.81
2018-04-01T12:09:45.652Z,99459.97
2018-04-01T12:10:50.143Z,99465.36
2018-04-01T12:11:54.694Z,99462.95
2018-04-01T12:12:59.216Z,99473.32
2018-04-01T12:14:03.719Z,99473.98
2018-04-01T12:15:08.174Z,99467.33
2018-04-01T12:16:12.655Z,99464.83
2018-04-01T12:17:17.191Z,99475.16
2018-04-01T12:18:21.682Z,99467.34
2018-04-01T12:19:26.392Z,99468.08
2018-04-01T12:20:30.870Z,99469.11
2018-04-01T12:21:35.385Z,99475.59
2018-04-01T12:22:39.873Z,99463.02
2018-04-01T12:23:44.455Z,99473.27
2018-04-01T12:24:48.971Z,99473.95
2018-04-01T12:25:53.461Z,99467.91
2018-04-01T12:26:58.084Z,99476.64
2018-04-01T12:28:02.928Z,99475.02
2018-04-01T12:29:08.149Z,99475.97
2018-04-01T12:30:12.631Z,99487.77
2018-04-01T12:31:17.128Z,99476.05
2018-04-01T12:32:21.713Z,99477.44
2018-04-01T12:33:26.440Z,99475.14
2018-04-01T12:34:30.900Z,99474.25
2018-04-01T12:35:35.351Z,99474.63
2018-04-01T12:36:39.818Z,99471.86
2018-04-01T12:37:44.513Z,99485.62
2018-04-01T12:38:49.002Z,99480.47
2018-04-01T12:39:53.690Z,99492.22
2018-04-01T12:40:58.199Z,99485.26
2018-04-01T12:42:02.729Z,99480.13
2018-04-01T12:43:07.274Z,99484.48
2018-04-01T12:44:14.611Z,99485.81
2018-04-01T12:45:19.141Z,99483.37
2018-04-01T12:46:23.680Z,99481.67
2018-04-01T12:47:28.196Z,99491.45
2018-04-01T12:48:32.695Z,99480.58
2018-04-01T12:49:37.181Z,99484.51